createdAt,value
2019-05-15T00:00:55.488Z,0.00
2019-05-15T00:01:55.565Z,0.00
2019-05-15T00:02:55.500Z,0.00
2019-05-15T00:03:55.519Z,0.00
2019-05-15T00:04:55.507Z,0.00
2019-05-15T00:05:55.515Z,0.00
2019-05-15T00:06:55.521Z,0.00
2019-05-15T00:07:55.533Z,0.00
2019-05-15T06:26:00.427Z,298.13
2019-05-15T06:27:00.417Z,292.50
2019-05-15T06:28:53.621Z,292.50
2019-05-15T06:29:53.605Z,298.13
2019-05-15T06:31:48.360Z,303.75
2019-05-15T06:33:01.992Z,298.13
2019-05-15T06:33:49.101Z,309.38
2019-05-15T06:34:48.535Z,326.25
2019-05-15T06:35:48.829Z,309.38
2019-05-15T06:36:48.575Z,309.38
2019-05-15T06:37:48.445Z,315.00
2019-05-15T06:38:48.379Z,315.00
2019-05-15T06:39:48.131Z,315.00
2019-05-15T06:40:48.603Z,315.00
2019-05-15T06:41:48.322Z,315.00
2019-05-15T06:42:48.403Z,315.00
2019-05-15T06:43:48.381Z,320.63
2019-05-15T06:44:48.347Z,331.88
2019-05-15T06:45:48.639Z,331.88
2019-05-15T06:46:48.297Z,331.88
2019-05-15T06:47:48.248Z,337.50
2019-05-15T06:48:48.632Z,343.13
2019-05-15T06:49:48.592Z,337.50
2019-05-15T06:50:49.066Z,343.13
2019-05-15T06:51:48.730Z,343.13
2019-05-15T06:52:48.632Z,343.13
2019-05-15T06:53:49.205Z,348.75
2019-05-15T06:54:48.508Z,354.38
2019-05-15T06:55:48.595Z,354.38
2019-05-15T06:56:49.217Z,360.00
2019-05-15T06:57:48.519Z,360.00
2019-05-15T06:58:48.654Z,360.00
2019-05-15T06:59:48.466Z,360.00
2019-05-15T07:00:48.882Z,360.00
2019-05-15T07:01:48.216Z,365.63
2019-05-15T07:02:48.694Z,371.25
2019-05-15T07:03:48.428Z,382.50
2019-05-15T07:04:48.809Z,376.88
2019-05-15T07:05:50.318Z,376.88
2019-05-15T07:06:48.940Z,376.88
2019-05-15T07:08:49.667Z,382.50
2019-05-15T07:09:48.650Z,382.50
2019-05-15T07:10:48.744Z,382.50
2019-05-15T07:11:48.289Z,388.13
2019-05-15T07:12:50.945Z,399.38
2019-05-15T07:13:48.641Z,405.00
2019-05-15T07:14:48.769Z,416.25
2019-05-15T07:15:49.539Z,433.13
2019-05-15T07:16:48.702Z,438.75
2019-05-15T07:17:48.381Z,450.00
2019-05-15T07:18:48.624Z,461.25
2019-05-15T07:19:48.604Z,483.75
2019-05-15T07:20:48.847Z,478.13
2019-05-15T07:21:48.707Z,483.75
2019-05-15T07:23:49.568Z,517.50
2019-05-15T07:24:47.985Z,534.38
2019-05-15T07:25:49.828Z,534.38
2019-05-15T07:26:48.392Z,556.88
2019-05-15T07:27:48.024Z,568.13
2019-05-15T07:28:48.607Z,573.75
2019-05-15T07:29:48.789Z,579.38
2019-05-15T07:30:49.541Z,596.25
2019-05-15T07:31:48.081Z,607.50
2019-05-15T07:32:48.721Z,601.88
2019-05-15T07:33:49.214Z,613.13
2019-05-15T07:34:48.404Z,624.38
2019-05-15T07:35:49.321Z,635.63
2019-05-15T07:36:49.270Z,646.88
2019-05-15T07:37:48.141Z,658.13
2019-05-15T07:38:48.605Z,663.75
2019-05-15T07:39:48.778Z,675.00
2019-05-15T07:40:57.173Z,708.75
2019-05-15T07:41:48.448Z,686.25
2019-05-15T07:42:48.971Z,708.75
2019-05-15T07:43:49.498Z,731.25
2019-05-15T07:44:48.380Z,770.63
2019-05-15T07:45:53.686Z,748.13
2019-05-15T07:46:48.865Z,759.38
2019-05-15T07:47:49.000Z,787.50
2019-05-15T07:48:49.052Z,804.38
2019-05-15T07:49:49.213Z,821.25
2019-05-15T07:50:49.685Z,815.63
2019-05-15T07:51:49.002Z,832.50
2019-05-15T07:52:48.629Z,843.75
2019-05-15T07:53:48.925Z,855.00
2019-05-15T07:54:48.895Z,866.25
2019-05-15T07:55:49.932Z,871.88
2019-05-15T07:56:48.908Z,894.38
2019-05-15T07:57:49.625Z,905.63
2019-05-15T07:58:52.435Z,905.63
2019-05-15T07:59:48.480Z,933.75
2019-05-15T08:00:49.253Z,950.63
2019-05-15T08:01:49.028Z,945.00
2019-05-15T08:02:48.512Z,950.63
2019-05-15T08:03:58.699Z,1001.25
2019-05-15T08:04:48.595Z,1001.25
2019-05-15T08:05:58.775Z,984.38
2019-05-15T08:06:49.137Z,978.75
2019-05-15T08:07:49.122Z,1018.13
2019-05-15T08:08:48.895Z,1046.25
2019-05-15T08:09:48.861Z,1023.75
2019-05-15T08:10:49.262Z,1029.38
2019-05-15T08:11:48.887Z,1063.13
2019-05-15T08:12:49.522Z,1068.75
2019-05-15T08:13:48.811Z,1068.75
2019-05-15T08:14:50.848Z,1096.88
2019-05-15T08:15:49.039Z,1125.00
2019-05-15T08:16:48.774Z,1130.63
2019-05-15T08:18:04.114Z,1130.63
2019-05-15T08:18:48.777Z,1147.50
2019-05-15T08:19:48.844Z,1147.50
2019-05-15T08:20:49.329Z,1153.13
2019-05-15T08:21:51.738Z,1141.88
2019-05-15T08:22:49.140Z,1130.63
2019-05-15T08:23:48.844Z,1170.00
2019-05-15T08:24:48.862Z,1175.63
2019-05-15T08:25:48.902Z,1203.75
2019-05-15T08:26:48.894Z,1220.63
2019-05-15T08:27:48.908Z,1226.25
2019-05-15T08:28:48.953Z,1248.75
2019-05-15T08:29:48.936Z,1265.63
2019-05-15T08:30:49.738Z,1243.13
2019-05-15T08:31:48.993Z,1198.13
2019-05-15T08:32:51.446Z,1215.00
2019-05-15T08:33:49.005Z,1254.38
2019-05-15T08:34:49.020Z,1260.00
2019-05-15T08:35:51.789Z,1260.00
2019-05-15T08:36:49.049Z,1276.88
2019-05-15T08:37:49.268Z,1271.25
2019-05-15T08:38:49.093Z,1288.13
2019-05-15T08:39:49.110Z,1305.00
2019-05-15T08:40:49.284Z,1288.13
2019-05-15T08:41:49.131Z,1288.13
2019-05-15T08:42:56.453Z,1299.38
2019-05-15T08:43:49.161Z,1305.00
2019-05-15T08:44:49.180Z,1310.63
2019-05-15T08:45:49.790Z,1327.50
2019-05-15T08:46:49.227Z,1366.88
2019-05-15T08:47:49.485Z,1389.38
2019-05-15T08:48:49.327Z,1344.38
2019-05-15T08:49:49.267Z,1338.75
2019-05-15T08:50:49.275Z,1355.63
2019-05-15T08:51:49.290Z,1378.13
2019-05-15T08:52:49.310Z,1445.63
2019-05-15T08:53:49.323Z,1485.00
2019-05-15T08:54:49.348Z,1479.38
2019-05-15T08:55:49.373Z,1411.88
2019-05-15T08:56:49.375Z,1423.13
2019-05-15T08:57:55.541Z,1462.50
2019-05-15T08:58:49.410Z,1468.13
2019-05-15T08:59:49.428Z,1462.50
2019-05-15T09:00:52.222Z,1490.63
2019-05-15T09:01:49.468Z,1530.00
2019-05-15T09:02:49.485Z,1535.63
2019-05-15T09:03:49.494Z,1490.63
2019-05-15T09:04:49.535Z,1473.75
2019-05-15T09:05:49.524Z,1524.38
2019-05-15T09:06:49.859Z,1580.63
2019-05-15T09:07:49.556Z,1614.38
2019-05-15T09:08:49.587Z,1552.50
2019-05-15T09:09:49.611Z,1524.38
2019-05-15T09:10:50.497Z,1552.50
2019-05-15T09:11:49.621Z,1546.88
2019-05-15T09:12:50.338Z,1524.38
2019-05-15T09:13:53.579Z,1569.38
2019-05-15T09:14:49.701Z,1620.00
2019-05-15T09:15:49.683Z,1620.00
2019-05-15T09:16:49.705Z,1636.88
2019-05-15T09:17:49.723Z,1636.88
2019-05-15T09:18:49.743Z,1648.13
2019-05-15T09:19:49.772Z,1608.75
2019-05-15T09:20:49.783Z,1575.00
2019-05-15T09:21:49.790Z,1591.88
2019-05-15T09:22:49.826Z,1625.63
2019-05-15T09:23:50.217Z,1625.63
2019-05-15T09:24:49.841Z,1580.63
2019-05-15T09:25:50.031Z,1620.00
2019-05-15T09:26:49.868Z,1620.00
2019-05-15T09:27:49.893Z,1659.38
2019-05-15T09:28:49.912Z,1659.38
2019-05-15T09:29:49.911Z,1665.00
2019-05-15T09:30:49.948Z,1665.00
2019-05-15T09:31:49.955Z,1636.88
2019-05-15T09:32:49.969Z,1648.13
2019-05-15T09:34:54.983Z,1653.75
2019-05-15T09:35:50.024Z,1670.63
2019-05-15T09:36:50.056Z,1591.88
2019-05-15T09:37:50.059Z,1597.50
2019-05-15T09:38:50.074Z,1670.63
2019-05-15T09:39:50.088Z,1704.38
2019-05-15T09:40:51.200Z,1738.13
2019-05-15T09:41:50.130Z,1659.38
2019-05-15T09:42:50.147Z,1631.25
2019-05-15T09:43:50.162Z,1676.25
2019-05-15T09:44:50.178Z,1704.38
2019-05-15T09:45:50.197Z,1715.63
2019-05-15T09:46:50.209Z,1698.75
2019-05-15T09:47:50.221Z,1665.00
2019-05-15T09:48:51.779Z,1653.75
2019-05-15T09:49:50.267Z,1636.88
2019-05-15T09:50:50.288Z,1755.00
2019-05-15T09:51:50.300Z,1929.38
2019-05-15T09:52:50.413Z,1856.25
2019-05-15T09:53:50.339Z,1726.88
2019-05-15T09:54:50.353Z,1760.63
2019-05-15T09:55:50.368Z,1766.25
2019-05-15T09:56:50.372Z,1755.00
2019-05-15T09:57:50.399Z,1788.75
2019-05-15T09:58:50.408Z,1822.50
2019-05-15T09:59:50.457Z,1805.63
2019-05-15T10:00:52.576Z,1760.63
2019-05-15T10:01:50.472Z,1726.88
2019-05-15T10:02:50.483Z,1732.50
2019-05-15T10:03:50.522Z,1783.13
2019-05-15T10:05:05.579Z,1721.25
2019-05-15T10:05:50.532Z,1698.75
2019-05-15T10:06:50.554Z,1636.88
2019-05-15T10:07:50.568Z,1631.25
2019-05-15T10:08:50.586Z,1648.13
2019-05-15T10:09:52.445Z,1687.50
2019-05-15T10:10:50.616Z,1710.00
2019-05-15T10:11:50.630Z,1743.75
2019-05-15T10:12:50.670Z,1771.88
2019-05-15T10:13:50.684Z,1800.00
2019-05-15T10:14:50.720Z,1783.13
2019-05-15T10:15:51.324Z,1766.25
2019-05-15T10:16:50.721Z,1693.13
2019-05-15T10:17:51.367Z,1653.75
2019-05-15T10:18:51.309Z,1721.25
2019-05-15T10:19:50.771Z,1828.13
2019-05-15T10:20:50.778Z,1850.63
2019-05-15T10:21:53.021Z,1845.00
2019-05-15T10:22:50.819Z,1749.38
2019-05-15T10:23:50.845Z,1704.38
2019-05-15T10:24:51.173Z,1845.00
2019-05-15T10:25:50.885Z,1929.38
2019-05-15T10:26:50.885Z,1923.75
2019-05-15T10:27:50.906Z,1867.50
2019-05-15T10:28:50.940Z,1766.25
2019-05-15T10:29:50.942Z,1755.00
2019-05-15T10:30:50.956Z,1783.13
2019-05-15T10:31:50.975Z,1783.13
2019-05-15T10:32:50.997Z,1777.50
2019-05-15T10:33:51.014Z,1867.50
2019-05-15T10:34:51.030Z,1951.88
2019-05-15T10:35:51.041Z,1890.00
2019-05-15T10:36:51.058Z,1816.88
2019-05-15T10:37:51.081Z,1805.63
2019-05-15T10:38:51.134Z,1895.63
2019-05-15T10:39:52.874Z,1963.13
2019-05-15T10:41:03.833Z,1935.00
2019-05-15T10:41:51.139Z,1861.88
2019-05-15T10:42:51.166Z,1912.50
2019-05-15T10:43:56.414Z,1974.38
2019-05-15T10:44:51.193Z,2013.75
2019-05-15T10:45:54.559Z,1980.00
2019-05-15T10:46:51.230Z,1940.63
2019-05-15T10:47:51.247Z,1929.38
2019-05-15T10:48:51.267Z,1951.88
2019-05-15T10:49:51.285Z,1957.50
2019-05-15T10:50:51.306Z,1935.00
2019-05-15T10:51:51.309Z,1951.88
2019-05-15T10:52:51.325Z,1963.13
2019-05-15T10:53:51.348Z,1890.00
2019-05-15T10:54:51.365Z,1839.38
2019-05-15T10:55:51.393Z,1845.00
2019-05-15T10:56:51.415Z,1890.00
2019-05-15T10:57:51.417Z,1946.25
2019-05-15T10:58:51.445Z,1968.75
2019-05-15T10:59:51.456Z,1946.25
2019-05-15T11:00:51.471Z,1906.88
2019-05-15T11:01:51.484Z,1884.38
2019-05-15T11:02:51.518Z,1873.13
2019-05-15T11:03:51.520Z,1867.50
2019-05-15T11:04:51.535Z,1884.38
2019-05-15T11:05:51.553Z,1884.38
2019-05-15T11:06:51.569Z,1861.88
2019-05-15T11:07:51.589Z,1935.00
2019-05-15T11:08:51.793Z,1586.25
2019-05-15T11:09:51.655Z,1738.13
2019-05-15T11:10:51.644Z,720.00
2019-05-15T11:11:51.772Z,1839.38
2019-05-15T11:12:51.670Z,2025.00
2019-05-15T11:13:51.691Z,2002.50
2019-05-15T11:14:51.711Z,1980.00
2019-05-15T11:15:51.735Z,1985.63
2019-05-15T11:16:51.743Z,1929.38
2019-05-15T11:17:51.768Z,1890.00
2019-05-15T11:18:53.563Z,1890.00
2019-05-15T11:19:51.797Z,1940.63
2019-05-15T11:20:51.813Z,1957.50
2019-05-15T11:21:51.850Z,1918.13
2019-05-15T11:22:51.854Z,1873.13
2019-05-15T11:23:51.864Z,1878.75
2019-05-15T11:24:53.129Z,1929.38
2019-05-15T11:25:51.907Z,1912.50
2019-05-15T11:26:51.922Z,1935.00
2019-05-15T11:27:51.940Z,2013.75
2019-05-15T11:28:51.951Z,1918.13
2019-05-15T11:29:51.979Z,1923.75
2019-05-15T11:30:51.991Z,1980.00
2019-05-15T11:31:52.002Z,1895.63
2019-05-15T11:32:52.019Z,1743.75
2019-05-15T11:33:52.049Z,1400.63
2019-05-15T11:34:52.057Z,1828.13
2019-05-15T11:36:00.935Z,1912.50
2019-05-15T11:36:52.084Z,1974.38
2019-05-15T11:37:56.767Z,1968.75
2019-05-15T11:38:52.122Z,1951.88
2019-05-15T11:39:52.159Z,1968.75
2019-05-15T11:40:52.155Z,2019.38
2019-05-15T11:41:52.181Z,1895.63
2019-05-15T11:42:52.193Z,1710.00
2019-05-15T11:43:52.206Z,1636.88
2019-05-15T11:44:53.399Z,1569.38
2019-05-15T11:45:52.235Z,1597.50
2019-05-15T11:46:52.313Z,1653.75
2019-05-15T11:47:52.278Z,1704.38
2019-05-15T11:48:52.296Z,1805.63
2019-05-15T11:49:52.319Z,1901.25
2019-05-15T11:50:52.325Z,1929.38
2019-05-15T11:51:52.338Z,1901.25
2019-05-15T11:52:52.360Z,1901.25
2019-05-15T11:53:52.373Z,1912.50
2019-05-15T11:54:52.390Z,1946.25
2019-05-15T11:55:52.402Z,1912.50
2019-05-15T11:56:52.429Z,1901.25
2019-05-15T11:57:55.613Z,1884.38
2019-05-15T11:58:52.464Z,1918.13
2019-05-15T11:59:55.420Z,1895.63
2019-05-15T12:00:52.498Z,1884.38
2019-05-15T12:01:52.509Z,1957.50
2019-05-15T12:02:52.542Z,1490.63
2019-05-15T12:03:52.549Z,686.25
2019-05-15T12:04:52.570Z,540.00
2019-05-15T12:05:52.581Z,1783.13
2019-05-15T12:06:59.612Z,2025.00
2019-05-15T12:07:52.615Z,2013.75
2019-05-15T12:08:52.638Z,1569.38
2019-05-15T12:09:52.649Z,1524.38
2019-05-15T12:10:52.661Z,2030.63
2019-05-15T12:11:52.697Z,1980.00
2019-05-15T12:12:52.693Z,1057.50
2019-05-15T12:13:52.710Z,720.00
2019-05-15T12:14:52.733Z,2081.25
2019-05-15T12:15:52.746Z,984.38
2019-05-15T12:17:05.414Z,635.63
2019-05-15T12:17:52.780Z,770.63
2019-05-15T12:18:52.798Z,1057.50
2019-05-15T12:19:55.314Z,1192.50
2019-05-15T12:20:52.834Z,1355.63
2019-05-15T12:21:52.846Z,1012.50
2019-05-15T12:22:52.897Z,1327.50
2019-05-15T12:23:52.877Z,2160.00
2019-05-15T12:24:52.890Z,613.13
2019-05-15T12:25:52.899Z,2058.75
2019-05-15T12:26:52.928Z,2103.75
2019-05-15T12:27:52.939Z,2086.88
2019-05-15T12:28:52.970Z,2058.75
2019-05-15T12:29:52.972Z,2025.00
2019-05-15T12:30:52.990Z,2047.50
2019-05-15T12:31:52.998Z,2120.63
2019-05-15T12:32:53.059Z,2171.25
2019-05-15T12:33:53.040Z,2176.88
2019-05-15T12:34:53.069Z,2193.75
2019-05-15T12:35:53.075Z,2064.38
2019-05-15T12:36:57.765Z,2182.50
2019-05-15T12:37:53.109Z,2081.25
2019-05-15T12:38:53.118Z,1996.88
2019-05-15T12:59:53.467Z,2030.63
2019-05-15T13:00:53.487Z,2126.25
2019-05-15T13:01:53.501Z,2126.25
2019-05-15T13:02:53.540Z,2070.00
2019-05-15T13:03:53.525Z,2075.63
2019-05-15T13:04:53.555Z,2109.38
2019-05-15T13:05:53.575Z,2075.63
2019-05-15T13:07:11.493Z,1991.25
2019-05-15T13:07:53.603Z,1974.38
2019-05-15T13:08:53.620Z,1940.63
2019-05-15T13:09:53.652Z,1940.63
2019-05-15T13:10:53.658Z,1906.88
2019-05-15T13:11:53.667Z,1839.38
2019-05-15T13:13:00.944Z,1766.25
2019-05-15T13:13:53.710Z,1749.38
2019-05-15T13:14:53.726Z,1766.25
2019-05-15T13:15:53.752Z,1788.75
2019-05-15T13:16:53.763Z,1777.50
2019-05-15T13:17:54.082Z,1738.13
2019-05-15T13:18:53.796Z,1766.25
2019-05-15T13:19:53.812Z,1794.38
2019-05-15T13:20:56.210Z,1715.63
2019-05-15T13:21:53.851Z,596.25
2019-05-15T13:22:53.888Z,1895.63
2019-05-15T13:23:53.885Z,1906.88
2019-05-15T13:24:53.899Z,1861.88
2019-05-15T13:25:53.932Z,1856.25
2019-05-15T13:26:53.939Z,1884.38
2019-05-15T13:27:53.954Z,652.50
2019-05-15T13:28:53.978Z,579.38
2019-05-15T13:29:53.984Z,534.38
2019-05-15T13:30:54.012Z,495.00
2019-05-15T13:31:54.021Z,466.88
2019-05-15T13:32:54.043Z,455.63
2019-05-15T13:33:54.061Z,450.00
2019-05-15T13:34:54.078Z,450.00
2019-05-15T13:35:54.102Z,466.88
2019-05-15T13:36:54.134Z,472.50
2019-05-15T13:37:54.124Z,478.13
2019-05-15T13:38:54.241Z,528.75
2019-05-15T13:40:54.165Z,466.88
2019-05-15T13:41:54.181Z,455.63
2019-05-15T13:42:54.198Z,450.00
2019-05-15T13:43:54.209Z,450.00
2019-05-15T13:44:54.231Z,466.88
2019-05-15T13:45:54.236Z,1603.13
2019-05-15T13:46:54.257Z,601.88
2019-05-15T13:47:54.267Z,658.13
2019-05-15T13:48:54.276Z,1209.38
2019-05-15T13:49:54.324Z,1575.00
2019-05-15T13:50:54.316Z,1603.13
2019-05-15T13:51:54.329Z,1608.75
2019-05-15T13:52:54.374Z,1580.63
2019-05-15T13:53:54.362Z,1569.38
2019-05-15T13:54:54.382Z,1575.00
2019-05-15T13:55:54.384Z,1535.63
2019-05-15T13:56:54.407Z,1130.63
2019-05-15T13:57:54.415Z,1485.00
2019-05-15T13:58:54.429Z,540.00
2019-05-15T13:59:54.453Z,523.13
2019-05-15T14:00:54.464Z,562.50
2019-05-15T14:01:54.486Z,1445.63
2019-05-15T14:02:54.504Z,523.13
2019-05-15T14:03:54.513Z,495.00
2019-05-15T14:04:54.535Z,489.38
2019-05-15T14:05:54.556Z,483.75
2019-05-15T14:06:54.558Z,478.13
2019-05-15T14:07:54.583Z,478.13
2019-05-15T14:08:54.601Z,472.50
2019-05-15T14:09:54.627Z,478.13
2019-05-15T14:10:54.624Z,483.75
2019-05-15T14:11:54.643Z,495.00
2019-05-15T14:12:54.670Z,658.13
2019-05-15T14:13:54.697Z,1344.38
2019-05-15T14:14:54.705Z,483.75
2019-05-15T14:15:54.699Z,506.25
2019-05-15T14:16:54.724Z,556.88
2019-05-15T14:17:54.736Z,534.38
2019-05-15T14:18:54.740Z,663.75
2019-05-15T14:19:54.758Z,528.75
2019-05-15T14:20:54.777Z,511.88
2019-05-15T14:21:54.787Z,495.00
2019-05-15T14:22:54.804Z,483.75
2019-05-15T14:23:54.816Z,466.88
2019-05-15T14:24:54.850Z,444.38
2019-05-15T14:25:54.838Z,427.50
2019-05-15T14:26:54.850Z,405.00
2019-05-15T14:27:54.873Z,399.38
2019-05-15T14:28:54.888Z,388.13
2019-05-15T14:29:54.897Z,388.13
2019-05-15T14:30:54.913Z,388.13
2019-05-15T14:31:54.918Z,399.38
2019-05-15T14:32:55.215Z,393.75
2019-05-15T14:33:54.962Z,399.38
2019-05-15T14:34:54.977Z,405.00
2019-05-15T14:35:54.984Z,410.63
2019-05-15T14:36:55.018Z,427.50
2019-05-15T14:38:05.498Z,450.00
2019-05-15T14:38:55.017Z,1074.38
2019-05-15T14:39:55.056Z,1080.00
2019-05-15T14:40:55.045Z,1057.50
2019-05-15T14:41:55.069Z,1074.38
2019-05-15T14:42:55.085Z,1074.38
2019-05-15T14:43:55.087Z,1080.00
2019-05-15T14:44:55.108Z,1063.13
2019-05-15T14:45:55.124Z,1029.38
2019-05-15T14:46:55.132Z,540.00
2019-05-15T14:47:55.144Z,438.75
2019-05-15T14:48:55.166Z,427.50
2019-05-15T14:49:55.172Z,438.75
2019-05-15T14:50:55.237Z,410.63
2019-05-15T14:52:05.663Z,405.00
2019-05-15T14:52:55.407Z,376.88
2019-05-15T14:53:55.234Z,371.25
2019-05-15T14:54:55.247Z,354.38
2019-05-15T14:55:55.303Z,337.50
2019-05-15T14:56:55.412Z,326.25
2019-05-15T14:57:55.464Z,315.00
2019-05-15T14:58:55.460Z,303.75
2019-05-15T14:59:57.885Z,298.13
2019-05-15T15:00:55.344Z,298.13
2019-05-15T15:01:55.347Z,303.75
2019-05-15T15:02:55.370Z,315.00
2019-05-15T15:03:55.377Z,326.25
2019-05-15T15:04:55.422Z,343.13
2019-05-15T15:05:58.045Z,433.13
2019-05-15T15:06:57.621Z,759.38
2019-05-15T15:07:58.352Z,765.00
2019-05-15T15:08:55.426Z,776.25
2019-05-15T15:09:55.456Z,810.00
2019-05-15T15:10:59.243Z,832.50
2019-05-15T15:11:55.480Z,860.63
2019-05-15T15:12:55.519Z,883.13
2019-05-15T15:13:57.812Z,905.63
2019-05-15T15:14:55.531Z,905.63
2019-05-15T15:15:55.536Z,894.38
2019-05-15T15:16:55.558Z,888.75
2019-05-15T15:17:58.141Z,455.63
2019-05-15T15:18:55.587Z,421.88
2019-05-15T15:19:59.954Z,416.25
2019-05-15T15:20:57.862Z,405.00
2019-05-15T15:21:57.923Z,405.00
2019-05-15T15:22:55.641Z,393.75
2019-05-15T15:23:55.662Z,382.50
2019-05-15T15:24:55.689Z,371.25
2019-05-15T15:25:57.717Z,360.00
2019-05-15T15:26:55.711Z,348.75
2019-05-15T15:27:55.717Z,337.50
2019-05-15T15:28:55.730Z,337.50
2019-05-15T15:29:57.970Z,343.13
2019-05-15T15:30:57.887Z,354.38
2019-05-15T15:31:55.778Z,365.63
2019-05-15T15:32:57.617Z,371.25
2019-05-15T15:33:57.887Z,365.63
2019-05-15T15:34:55.823Z,365.63
2019-05-15T15:35:57.960Z,365.63
2019-05-15T15:36:57.964Z,376.88
2019-05-15T15:37:57.978Z,382.50
2019-05-15T15:38:55.867Z,388.13
2019-05-15T15:39:55.897Z,405.00
2019-05-15T15:40:55.891Z,376.88
2019-05-15T15:41:57.872Z,360.00
2019-05-15T15:42:58.069Z,444.38
2019-05-15T15:43:55.931Z,433.13
2019-05-15T15:44:57.969Z,427.50
2019-05-15T15:45:58.075Z,416.25
2019-05-15T15:46:55.994Z,393.75
2019-05-15T15:47:55.973Z,388.13
2019-05-15T15:48:55.989Z,371.25
2019-05-15T15:49:58.354Z,365.63
2019-05-15T15:50:57.985Z,360.00
2019-05-15T15:51:58.030Z,348.75
2019-05-15T15:52:56.044Z,348.75
2019-05-15T15:53:56.047Z,354.38
2019-05-15T15:54:56.066Z,343.13
2019-05-15T15:55:56.077Z,343.13
2019-05-15T15:56:56.095Z,348.75
2019-05-15T15:57:56.110Z,343.13
2019-05-15T15:58:56.115Z,337.50
2019-05-15T15:59:56.134Z,337.50
2019-05-15T16:00:56.142Z,348.75
2019-05-15T16:01:56.149Z,348.75
2019-05-15T16:03:56.180Z,371.25
2019-05-15T16:04:56.192Z,388.13
2019-05-15T16:05:56.197Z,399.38
2019-05-15T16:06:58.732Z,410.63
2019-05-15T16:07:56.229Z,427.50
2019-05-15T16:08:56.235Z,371.25
2019-05-15T16:09:56.238Z,438.75
2019-05-15T16:10:56.263Z,450.00
2019-05-15T16:11:58.327Z,427.50
2019-05-15T16:12:58.264Z,376.88
2019-05-15T16:13:58.595Z,405.00
2019-05-15T16:14:57.916Z,309.38
2019-05-15T16:15:57.897Z,348.75
2019-05-15T16:16:56.327Z,253.13
2019-05-15T16:17:56.337Z,241.88
2019-05-15T16:18:56.348Z,230.63
2019-05-15T16:19:56.362Z,219.38
2019-05-15T16:20:58.006Z,208.13
2019-05-15T16:21:56.425Z,202.50
2019-05-15T16:22:56.403Z,202.50
2019-05-15T16:23:58.247Z,202.50
2019-05-15T16:24:58.727Z,196.88
2019-05-15T16:26:00.615Z,191.25
2019-05-15T16:26:57.997Z,191.25
2019-05-15T16:27:57.781Z,185.63
2019-05-15T16:28:58.005Z,180.00
2019-05-15T16:29:58.391Z,180.00
2019-05-15T16:30:58.483Z,180.00
2019-05-15T16:31:58.187Z,180.00
2019-05-15T16:32:58.501Z,174.38
2019-05-15T16:33:58.557Z,174.38
2019-05-15T16:34:58.304Z,168.75
2019-05-15T16:35:58.060Z,174.38
2019-05-15T16:36:58.504Z,174.38
2019-05-15T16:37:58.468Z,174.38
2019-05-15T16:39:05.119Z,191.25
2019-05-15T16:40:58.303Z,281.25
2019-05-15T16:41:59.183Z,275.63
2019-05-15T16:42:58.014Z,281.25
2019-05-15T16:43:57.818Z,286.88
2019-05-15T16:44:58.442Z,292.50
2019-05-15T16:45:58.656Z,298.13
2019-05-15T16:46:58.721Z,298.13
2019-05-15T16:47:58.683Z,298.13
2019-05-15T16:48:58.349Z,303.75
2019-05-15T16:49:57.951Z,315.00
2019-05-15T16:50:58.079Z,315.00
2019-05-15T16:51:58.318Z,320.63
2019-05-15T16:52:58.397Z,326.25
2019-05-15T16:53:58.148Z,315.00
2019-05-15T16:54:58.136Z,320.63
2019-05-15T16:55:58.593Z,320.63
2019-05-15T16:56:58.726Z,309.38
2019-05-15T16:57:58.535Z,309.38
2019-05-15T16:58:56.791Z,292.50
2019-05-15T16:59:58.604Z,309.38
2019-05-15T17:00:58.514Z,230.63
2019-05-15T17:01:56.827Z,230.63
2019-05-15T17:03:09.155Z,230.63
2019-05-15T17:03:56.853Z,292.50
2019-05-15T17:04:56.862Z,303.75
2019-05-15T17:05:58.707Z,303.75
2019-05-15T17:06:58.573Z,309.38
2019-05-15T17:07:58.334Z,286.88
2019-05-15T17:08:57.926Z,241.88
2019-05-15T17:09:58.617Z,281.25
2019-05-15T17:10:58.699Z,298.13
2019-05-15T17:11:58.253Z,264.38
2019-05-15T17:12:58.272Z,241.88
2019-05-15T17:13:59.144Z,241.88
2019-05-15T17:14:58.282Z,270.00
2019-05-15T17:15:58.390Z,258.75
2019-05-15T17:16:58.616Z,253.13
2019-05-15T17:17:58.282Z,253.13
2019-05-15T17:18:58.105Z,247.50
2019-05-15T17:19:57.930Z,230.63
2019-05-15T17:20:59.062Z,163.13
2019-05-15T17:21:58.788Z,157.50
2019-05-15T17:22:57.967Z,151.88
2019-05-15T17:23:58.185Z,146.25
2019-05-15T17:24:58.347Z,146.25
2019-05-15T17:25:58.140Z,146.25
2019-05-15T17:26:59.591Z,163.13
2019-05-15T17:27:58.410Z,163.13
2019-05-15T17:28:58.208Z,140.63
2019-05-15T17:29:58.447Z,157.50
2019-05-15T17:30:58.382Z,151.88
2019-05-15T17:31:57.145Z,157.50
2019-05-15T17:32:57.168Z,185.63
2019-05-15T17:33:58.246Z,191.25
2019-05-15T17:34:58.853Z,213.75
2019-05-15T17:35:58.008Z,213.75
2019-05-15T17:37:58.101Z,213.75
2019-05-15T17:38:58.094Z,208.13
2019-05-15T17:39:58.926Z,208.13
2019-05-15T17:40:57.850Z,202.50
2019-05-15T17:41:59.385Z,202.50
2019-05-15T17:42:58.571Z,202.50
2019-05-15T17:43:57.998Z,202.50
2019-05-15T17:44:57.921Z,202.50
2019-05-15T17:46:58.481Z,202.50
2019-05-15T17:47:58.433Z,202.50
2019-05-15T17:49:06.684Z,202.50
2019-05-15T17:49:58.818Z,196.88
2019-05-15T17:50:59.161Z,202.50
2019-05-15T17:51:58.231Z,208.13
2019-05-15T17:52:58.700Z,196.88
2019-05-15T17:53:58.292Z,196.88
2019-05-15T17:54:59.281Z,191.25
2019-05-15T17:55:58.605Z,191.25
2019-05-15T17:56:58.363Z,185.63
2019-05-15T17:58:00.801Z,185.63
2019-05-15T17:58:58.166Z,180.00
2019-05-15T17:59:59.027Z,146.25
2019-05-15T18:00:59.496Z,129.38
2019-05-15T18:01:59.546Z,129.38
2019-05-15T18:02:57.463Z,123.75
2019-05-15T18:03:59.463Z,118.13
2019-05-15T18:04:58.765Z,112.50
2019-05-15T18:05:59.162Z,112.50
2019-05-15T18:06:59.067Z,106.88
2019-05-15T18:07:58.391Z,101.25
2019-05-15T18:08:59.356Z,112.50
2019-05-15T18:09:59.082Z,118.13
2019-05-15T18:10:58.677Z,118.13
2019-05-15T18:11:58.664Z,123.75
2019-05-15T18:12:58.389Z,123.75
2019-05-15T18:13:58.232Z,118.13
2019-05-15T18:14:58.331Z,118.13
2019-05-15T18:16:02.934Z,112.50
2019-05-15T18:16:58.579Z,112.50
2019-05-15T18:17:59.380Z,112.50
2019-05-15T18:18:58.607Z,101.25
2019-05-15T18:19:58.127Z,101.25
2019-05-15T18:20:58.247Z,95.63
2019-05-15T18:21:59.223Z,90.00
2019-05-15T18:22:59.112Z,84.38
2019-05-15T18:23:58.674Z,78.75
2019-05-15T18:24:58.142Z,78.75
2019-05-15T18:25:58.441Z,78.75
2019-05-15T18:26:58.456Z,78.75
2019-05-15T18:27:59.198Z,73.13
2019-05-15T18:28:58.441Z,67.50
2019-05-15T18:29:58.386Z,67.50
2019-05-15T18:30:58.787Z,73.13
2019-05-15T18:31:57.822Z,67.50
2019-05-15T18:32:58.857Z,67.50
2019-05-15T18:33:58.972Z,61.88
2019-05-15T18:34:58.765Z,61.88
2019-05-15T18:35:58.215Z,56.25
2019-05-15T18:36:57.928Z,56.25
2019-05-15T18:37:59.152Z,56.25
2019-05-15T18:38:58.846Z,56.25
2019-05-15T18:40:05.358Z,50.63
2019-05-15T18:40:58.264Z,45.00
2019-05-15T18:41:57.882Z,39.38
2019-05-15T18:42:59.317Z,39.38
2019-05-15T18:43:58.022Z,33.75
2019-05-15T18:44:58.386Z,33.75
2019-05-15T18:45:58.465Z,28.13
2019-05-15T18:46:58.270Z,28.13
2019-05-15T18:47:58.707Z,28.13
2019-05-15T18:48:58.027Z,22.50
2019-05-15T18:50:05.443Z,22.50
2019-05-15T18:50:58.795Z,22.50
2019-05-15T18:51:58.282Z,22.50
2019-05-15T18:52:58.531Z,16.88
2019-05-15T18:53:58.788Z,16.88
2019-05-15T18:54:58.695Z,16.88
2019-05-15T18:55:58.465Z,16.88
2019-05-15T18:56:58.517Z,16.88
2019-05-15T18:57:58.542Z,16.88
2019-05-15T18:58:58.019Z,16.88
2019-05-15T18:59:58.132Z,11.25
2019-05-15T19:00:58.570Z,11.25
2019-05-15T19:01:58.658Z,11.25
2019-05-15T19:02:59.475Z,11.25
2019-05-15T19:03:58.313Z,11.25
2019-05-15T19:04:58.703Z,11.25
2019-05-15T19:05:58.554Z,5.63
2019-05-15T19:06:58.379Z,5.63
2019-05-15T19:07:58.207Z,5.63